Time;durP1;ratioP1;P1;durP2;ratioP2;P2;SDS_P1;SDS_P2;PMS_P1;PMS_P2;Temp;Humidity;BMP_temperature;BMP_pressure;BME280_temperature;BME280_humidity;BME280_pressure;Samples;Min_cycle;Max_cycle;Signal;HPM_P1;HPM_P2
2022/08/21 00:00:56;;;;;;;22.55;12.05;;;15.30;99.90;;;;;;5009158;28;20148;-74
2022/08/21 00:03:22;;;;;;;20.08;11.95;;;15.30;99.90;;;;;;5027774;28;20056;-74
2022/08/21 00:05:50;;;;;;;17.00;11.30;;;15.30;99.90;;;;;;5012186;28;20095;-74
2022/08/21 00:08:20;;;;;;;16.73;10.45;;;15.40;99.90;;;;;;5024929;28;20041;-74
2022/08/21 00:10:47;;;;;;;17.88;13.05;;;15.30;99.90;;;;;;5028732;28;20064;-74
2022/08/21 00:13:14;;;;;;;20.33;14.48;;;15.10;99.90;;;;;;5017132;28;20087;-74
2022/08/21 00:15:41;;;;;;;21.02;14.93;;;15.10;99.90;;;;;;5025499;28;20042;-74
2022/08/21 00:18:10;;;;;;;19.98;14.55;;;15.10;99.90;;;;;;5024585;28;20409;-74
2022/08/21 00:20:38;;;;;;;20.92;14.07;;;15.00;99.90;;;;;;5036474;28;20474;-74
2022/08/21 00:23:04;;;;;;;21.77;13.63;;;15.00;99.90;;;;;;5030676;28;20041;-74
2022/08/21 00:25:31;;;;;;;21.10;13.52;;;14.90;99.90;;;;;;5025547;28;20080;-74
2022/08/21 00:27:57;;;;;;;18.77;13.68;;;14.90;99.90;;;;;;5000192;28;20053;-74
2022/08/21 00:30:25;;;;;;;18.20;13.57;;;14.90;99.90;;;;;;5012633;28;20053;-74
2022/08/21 00:32:52;;;;;;;17.88;12.65;;;14.80;99.90;;;;;;5030080;28;20046;-74
2022/08/21 00:35:22;;;;;;;17.52;12.50;;;14.80;99.90;;;;;;5032048;28;20474;-73
2022/08/21 00:37:48;;;;;;;20.65;11.75;;;14.90;99.90;;;;;;5016704;28;20050;-73
2022/08/21 00:40:18;;;;;;;15.85;10.43;;;14.90;99.90;;;;;;5008459;28;20042;-73
2022/08/21 00:42:44;;;;;;;18.23;11.30;;;14.90;99.90;;;;;;5016740;28;20419;-74
2022/08/21 00:45:11;;;;;;;16.70;10.50;;;14.90;99.90;;;;;;5025200;28;20373;-73
2022/08/21 00:47:37;;;;;;;15.35;11.13;;;14.90;99.90;;;;;;5029104;28;20049;-73
2022/08/21 00:50:05;;;;;;;16.33;11.30;;;14.90;99.90;;;;;;5034441;28;20071;-74
2022/08/21 00:52:33;;;;;;;19.52;11.75;;;14.80;99.90;;;;;;5015823;28;20056;-73
2022/08/21 00:55:00;;;;;;;16.25;11.68;;;14.80;99.90;;;;;;5013901;28;20413;-73
2022/08/21 00:57:47;;;;;;;16.75;11.32;;;14.80;99.90;;;;;;5026686;28;20045;-73
2022/08/21 01:00:18;;;;;;;16.08;11.07;;;14.70;99.90;;;;;;5013881;28;20406;-73
2022/08/21 01:02:44;;;;;;;;;;;14.70;99.90;;;;;;5002726;28;20456;-73
2022/08/21 01:05:10;;;;;;;12.80;9.80;;;14.60;99.90;;;;;;5024954;28;19929;-73
2022/08/21 01:07:37;;;;;;;13.57;10.05;;;14.60;99.90;;;;;;5034592;28;20390;-73
2022/08/21 01:10:05;;;;;;;16.30;10.60;;;14.50;99.90;;;;;;5030310;28;20367;-73
2022/08/21 01:12:32;;;;;;;10.57;8.98;;;14.50;99.90;;;;;;4997962;28;20401;-73
2022/08/21 01:15:00;;;;;;;17.83;10.73;;;14.50;99.90;;;;;;5039939;28;20140;-73
2022/08/21 01:17:27;;;;;;;15.23;11.00;;;14.40;99.90;;;;;;5023227;28;20046;-73
2022/08/21 01:19:57;;;;;;;16.50;12.38;;;14.50;99.90;;;;;;5002936;28;20045;-73
2022/08/21 01:22:23;;;;;;;18.70;12.40;;;14.50;99.90;;;;;;5026722;28;20478;-73
2022/08/21 01:24:49;;;;;;;18.08;12.55;;;14.50;99.90;;;;;;5015508;28;20049;-73
2022/08/21 01:27:16;;;;;;;18.80;11.77;;;14.50;99.90;;;;;;4997264;28;20430;-73
2022/08/21 01:30:00;;;;;;;18.70;12.07;;;14.50;99.90;;;;;;5008741;28;20049;-73
2022/08/21 01:32:27;;;;;;;15.57;10.10;;;14.50;99.90;;;;;;5013516;28;20048;-73
2022/08/21 01:34:53;;;;;;;10.63;8.45;;;14.40;99.90;;;;;;5027735;28;20041;-73
2022/08/21 01:37:21;;;;;;;40.75;10.10;;;14.40;99.90;;;;;;5019314;28;20065;-73
2022/08/21 01:39:47;;;;;;;16.85;11.18;;;14.30;99.90;;;;;;5019067;28;20049;-73
2022/08/21 01:42:14;;;;;;;12.63;10.38;;;14.30;99.90;;;;;;5027935;28;20378;-74
2022/08/21 01:44:41;;;;;;;11.52;9.80;;;14.30;99.90;;;;;;5013019;28;20049;-73
2022/08/21 01:47:10;;;;;;;9.23;8.18;;;14.30;99.90;;;;;;5049153;28;20048;-73
2022/08/21 01:49:38;;;;;;;16.30;8.85;;;14.30;99.90;;;;;;5013254;28;20426;-73
2022/08/21 01:52:05;;;;;;;11.60;8.88;;;14.20;99.90;;;;;;5006052;28;20128;-73
2022/08/21 01:54:32;;;;;;;13.57;10.00;;;14.10;99.90;;;;;;5009074;28;20048;-74
2022/08/21 01:56:59;;;;;;;14.13;10.40;;;14.10;99.90;;;;;;5047043;28;20483;-73
2022/08/21 01:59:25;;;;;;;14.10;9.82;;;14.10;99.90;;;;;;5012325;28;20056;-73
2022/08/21 02:01:53;;;;;;;19.70;10.27;;;14.00;99.90;;;;;;5022045;28;20037;-73
2022/08/21 02:04:20;;;;;;;14.90;10.25;;;14.00;99.90;;;;;;5020596;28;20041;-73
2022/08/21 02:06:46;;;;;;;11.95;8.88;;;14.00;99.90;;;;;;4985687;28;20095;-73
2022/08/21 02:09:13;;;;;;;13.38;10.90;;;13.90;99.90;;;;;;5031961;28;20103;-73
2022/08/21 02:11:40;;;;;;;19.35;11.02;;;13.90;99.90;;;;;;5032714;28;20171;-73
2022/08/21 02:14:09;;;;;;;16.25;11.25;;;13.90;99.90;;;;;;5029509;28;20139;-73
2022/08/21 02:16:36;;;;;;;14.68;11.10;;;13.90;99.90;;;;;;5029172;28;20124;-73
2022/08/21 02:19:02;;;;;;;17.90;10.88;;;13.90;99.90;;;;;;5012427;28;20109;-73
2022/08/21 02:21:28;;;;;;;15.35;10.18;;;13.80;99.90;;;;;;5012242;28;20049;-73
2022/08/21 02:23:54;;;;;;;18.55;11.55;;;13.80;99.90;;;;;;5019974;28;20443;-73
2022/08/21 02:26:20;;;;;;;18.60;11.07;;;13.80;99.90;;;;;;5028263;28;20045;-73
2022/08/21 02:28:46;;;;;;;17.85;11.00;;;13.80;99.90;;;;;;5007731;28;20125;-73
2022/08/21 02:31:12;;;;;;;18.15;11.00;;;13.80;99.90;;;;;;5016339;28;20441;-73
2022/08/21 02:33:39;;;;;;;16.02;10.32;;;13.80;99.90;;;;;;5013371;28;20037;-73
2022/08/21 02:36:05;;;;;;;14.30;9.57;;;13.70;99.90;;;;;;5042591;28;20072;-73
2022/08/21 02:38:34;;;;;;;12.77;8.65;;;13.70;99.90;;;;;;5031690;28;20512;-73
2022/08/21 02:41:00;;;;;;;13.18;7.47;;;13.70;99.90;;;;;;5032284;28;20394;-73
2022/08/21 02:43:27;;;;;;;15.05;9.38;;;13.70;99.90;;;;;;5032347;28;20111;-73
2022/08/21 02:45:55;;;;;;;14.27;9.80;;;13.60;99.90;;;;;;5023669;28;20045;-73
2022/08/21 02:48:24;;;;;;;14.55;10.57;;;13.70;99.90;;;;;;5020489;28;20128;-73
2022/08/21 02:50:59;;;;;;;17.23;10.02;;;13.70;99.90;;;;;;5008319;28;20049;-73
2022/08/21 02:53:27;;;;;;;15.07;8.40;;;13.70;99.90;;;;;;5020674;28;20037;-73
2022/08/21 02:55:53;;;;;;;11.85;7.68;;;13.70;99.90;;;;;;5020747;28;20051;-73
2022/08/21 02:58:23;;;;;;;9.55;7.72;;;13.70;99.90;;;;;;5019230;28;20486;-73
2022/08/21 03:00:49;;;;;;;14.68;8.13;;;13.60;99.90;;;;;;5011627;28;20053;-73
2022/08/21 03:03:16;;;;;;;13.00;8.60;;;13.60;99.90;;;;;;5016328;28;20520;-73
2022/08/21 03:05:43;;;;;;;14.43;8.43;;;13.60;99.90;;;;;;5001242;28;20424;-73
2022/08/21 03:08:11;;;;;;;10.82;8.57;;;13.60;99.90;;;;;;4984728;28;20393;-73
2022/08/21 03:10:43;;;;;;;12.00;8.32;;;13.60;99.90;;;;;;5023171;28;20057;-72
2022/08/21 03:13:09;;;;;;;11.25;8.30;;;13.50;99.90;;;;;;5027985;28;20088;-73
2022/08/21 03:15:36;;;;;;;12.50;8.10;;;13.50;99.90;;;;;;5030038;28;20509;-73
2022/08/21 03:18:04;;;;;;;19.50;9.15;;;13.50;99.90;;;;;;5025645;28;20041;-72
2022/08/21 03:20:32;;;;;;;13.02;8.93;;;13.50;99.90;;;;;;5007621;28;20053;-73
2022/08/21 03:22:59;;;;;;;15.38;9.00;;;13.50;99.90;;;;;;5029902;28;20068;-73
2022/08/21 03:25:27;;;;;;;11.80;8.60;;;13.50;99.90;;;;;;5031073;28;20077;-73
2022/08/21 03:27:53;;;;;;;14.63;9.23;;;13.60;99.90;;;;;;5030972;28;20473;-73
2022/08/21 03:30:20;;;;;;;15.43;9.70;;;13.50;99.90;;;;;;5029503;28;20045;-73
2022/08/21 03:32:47;;;;;;;16.05;9.00;;;13.50;99.90;;;;;;5011486;28;20072;-73
2022/08/21 03:35:13;;;;;;;14.68;8.70;;;13.50;99.90;;;;;;5011381;28;20073;-73
2022/08/21 03:37:40;;;;;;;15.40;9.60;;;13.50;99.90;;;;;;5021569;28;20492;-73
2022/08/21 03:40:08;;;;;;;18.05;9.38;;;13.50;99.90;;;;;;4995823;28;20828;-73
2022/08/21 03:42:34;;;;;;;16.30;9.85;;;13.50;99.90;;;;;;5021107;28;20449;-72
2022/08/21 03:45:01;;;;;;;17.73;9.70;;;13.60;99.90;;;;;;5019209;28;20049;-73
2022/08/21 03:47:27;;;;;;;15.10;8.93;;;13.60;99.90;;;;;;4994361;28;20052;-73
2022/08/21 03:49:54;;;;;;;16.00;9.65;;;13.60;99.90;;;;;;5011055;28;20124;-73
2022/08/21 03:52:20;;;;;;;13.85;8.80;;;13.60;99.90;;;;;;5001544;28;20071;-73
2022/08/21 03:54:46;;;;;;;17.95;9.52;;;13.60;99.90;;;;;;5020580;28;20498;-73
2022/08/21 03:57:12;;;;;;;18.02;9.15;;;13.60;99.90;;;;;;5012777;28;20057;-73
2022/08/21 03:59:39;;;;;;;15.77;9.25;;;13.50;99.90;;;;;;5013859;28;20053;-72
2022/08/21 04:02:06;;;;;;;18.23;9.40;;;13.50;99.90;;;;;;4997680;28;20056;-73
2022/08/21 04:04:34;;;;;;;16.10;10.32;;;13.50;99.90;;;;;;4994642;28;20482;-73
2022/08/21 04:07:01;;;;;;;17.98;10.18;;;13.50;99.90;;;;;;5026350;28;20509;-73
2022/08/21 04:09:26;;;;;;;16.05;10.15;;;13.50;99.90;;;;;;5029449;28;20037;-73
2022/08/21 04:11:53;;;;;;;16.20;10.10;;;13.50;99.90;;;;;;5030514;28;20043;-72
2022/08/21 04:14:20;;;;;;;22.02;10.45;;;13.50;99.90;;;;;;5003558;28;20054;-73
2022/08/21 04:16:46;;;;;;;19.70;10.50;;;13.40;99.90;;;;;;5021885;28;20038;-73
2022/08/21 04:19:15;;;;;;;18.17;10.75;;;13.50;99.90;;;;;;5013703;28;20402;-73
2022/08/21 04:21:41;;;;;;;18.67;10.73;;;13.50;99.90;;;;;;5028365;28;20041;-73
2022/08/21 04:24:09;;;;;;;17.38;11.20;;;13.50;99.90;;;;;;4996831;28;20487;-73
2022/08/21 04:26:36;;;;;;;26.98;12.30;;;13.60;99.90;;;;;;4997241;28;20049;-73
2022/08/21 04:29:05;;;;;;;21.35;11.80;;;13.60;99.90;;;;;;5010560;28;20049;-74
2022/08/21 04:31:32;;;;;;;20.50;11.95;;;13.60;99.90;;;;;;5010565;28;20147;-73
2022/08/21 04:33:59;;;;;;;17.88;12.13;;;13.60;99.90;;;;;;5002603;28;20044;-73
2022/08/21 04:36:24;;;;;;;18.58;11.02;;;13.60;99.90;;;;;;4993202;28;20385;-73
2022/08/21 04:38:50;;;;;;;20.10;11.60;;;13.60;99.90;;;;;;5029401;28;20041;-73
2022/08/21 04:41:17;;;;;;;19.92;10.85;;;13.50;99.90;;;;;;5012174;28;20057;-73
2022/08/21 04:43:42;;;;;;;19.63;11.35;;;13.60;99.90;;;;;;5010874;28;20425;-73
2022/08/21 04:46:08;;;;;;;23.17;11.55;;;13.60;99.90;;;;;;4994542;28;20038;-73
2022/08/21 04:48:34;;;;;;;24.52;12.88;;;13.60;99.90;;;;;;4993933;28;20042;-73
2022/08/21 04:51:15;;;;;;;22.48;12.38;;;13.60;99.90;;;;;;5022349;28;20037;-73
2022/08/21 04:54:06;;;;;;;18.67;12.23;;;13.60;99.90;;;;;;5040638;28;20053;-73
2022/08/21 04:56:41;;;;;;;19.60;12.00;;;13.70;99.90;;;;;;5020654;28;20041;-73
2022/08/21 04:59:17;;;;;;;19.00;12.27;;;13.70;99.90;;;;;;5009801;28;20134;-73
2022/08/21 05:01:44;;;;;;;19.17;12.00;;;13.70;99.90;;;;;;5010624;28;20085;-73
2022/08/21 05:04:14;;;;;;;15.82;11.45;;;13.80;99.90;;;;;;5012171;28;20096;-73
2022/08/21 05:06:43;;;;;;;21.58;12.73;;;13.80;99.90;;;;;;5023379;28;20132;-74
2022/08/21 05:09:10;;;;;;;22.35;12.70;;;13.80;99.90;;;;;;5029751;28;20500;-73
2022/08/21 05:11:37;;;;;;;19.70;12.40;;;13.80;99.90;;;;;;5030231;28;20086;-73
2022/08/21 05:14:03;;;;;;;21.58;12.20;;;13.90;99.90;;;;;;5013528;28;20045;-73
2022/08/21 05:16:29;;;;;;;17.98;12.18;;;13.90;99.90;;;;;;5029213;28;20565;-73
2022/08/21 05:18:55;;;;;;;17.95;11.73;;;14.00;99.90;;;;;;5029077;28;20754;-74
2022/08/21 05:21:20;;;;;;;18.17;11.95;;;14.00;99.90;;;;;;5022747;28;20038;-73
2022/08/21 05:23:46;;;;;;;19.45;12.50;;;14.10;99.90;;;;;;5015284;28;20045;-73
2022/08/21 05:26:12;;;;;;;19.23;12.05;;;14.10;99.90;;;;;;5017213;28;20045;-73
2022/08/21 05:28:38;;;;;;;22.60;13.15;;;14.20;99.90;;;;;;5014178;28;20057;-73
2022/08/21 05:31:04;;;;;;;20.30;12.60;;;14.30;99.90;;;;;;5014025;28;20104;-73
2022/08/21 05:33:30;;;;;;;19.98;12.55;;;14.30;99.90;;;;;;5014101;28;20084;-73
2022/08/21 05:35:56;;;;;;;20.63;12.52;;;14.40;99.90;;;;;;5016361;28;20042;-74
2022/08/21 05:38:24;;;;;;;19.63;12.07;;;14.50;99.90;;;;;;4996959;28;20545;-73
2022/08/21 05:40:50;;;;;;;18.33;11.23;;;14.50;99.90;;;;;;5017814;28;20042;-73
2022/08/21 05:43:16;;;;;;;21.65;12.27;;;14.60;99.90;;;;;;4999059;28;20046;-72
2022/08/21 05:45:42;;;;;;;17.60;12.23;;;14.70;99.90;;;;;;5033219;28;20042;-73
2022/08/21 05:48:14;;;;;;;20.02;11.93;;;14.80;99.90;;;;;;5033020;28;20056;-73
2022/08/21 05:50:42;;;;;;;22.15;11.65;;;14.80;99.90;;;;;;5013238;28;20069;-73
2022/08/21 05:53:09;;;;;;;16.58;10.95;;;14.90;99.90;;;;;;4997672;28;20183;-73
2022/08/21 05:55:36;;;;;;;18.17;11.18;;;15.00;99.90;;;;;;5016868;28;20053;-73
2022/08/21 05:58:03;;;;;;;18.25;10.82;;;15.10;99.90;;;;;;5013498;28;20776;-73
2022/08/21 06:00:29;;;;;;;17.02;10.80;;;15.20;99.90;;;;;;5012592;28;20184;-73
2022/08/21 06:02:55;;;;;;;17.90;10.85;;;15.30;99.90;;;;;;5013424;28;20402;-73
2022/08/21 06:05:21;;;;;;;18.52;11.77;;;15.30;99.90;;;;;;4998146;28;20034;-73
2022/08/21 06:07:47;;;;;;;16.50;10.70;;;15.50;99.90;;;;;;4996206;28;20483;-73
2022/08/21 06:10:13;;;;;;;15.13;9.60;;;15.60;99.90;;;;;;5031065;28;20052;-73
2022/08/21 06:12:39;;;;;;;16.70;10.35;;;15.70;99.90;;;;;;5032928;28;20056;-73
2022/08/21 06:15:05;;;;;;;17.13;10.18;;;15.80;99.90;;;;;;5023732;28;20128;-73
2022/08/21 06:17:31;;;;;;;16.83;10.68;;;15.80;99.90;;;;;;5016097;28;20095;-73
2022/08/21 06:19:57;;;;;;;17.98;11.55;;;16.00;99.90;;;;;;5017861;28;20490;-73
2022/08/21 06:22:23;;;;;;;19.40;10.32;;;16.10;99.90;;;;;;5032515;28;20075;-73
2022/08/21 06:24:49;;;;;;;18.58;9.50;;;16.30;99.90;;;;;;5015067;28;20128;-73
2022/08/21 06:27:15;;;;;;;19.10;10.57;;;16.30;99.90;;;;;;4980046;28;20124;-73
2022/08/21 06:29:41;;;;;;;15.23;9.18;;;16.40;99.90;;;;;;4996522;28;20049;-73
2022/08/21 06:32:11;;;;;;;20.75;10.00;;;16.50;99.90;;;;;;5011235;28;20482;-73
2022/08/21 06:34:39;;;;;;;21.02;10.40;;;16.60;99.90;;;;;;4997189;28;20080;-73
2022/08/21 06:37:05;;;;;;;15.52;9.80;;;16.70;99.90;;;;;;5004693;28;20490;-73
2022/08/21 06:39:32;;;;;;;13.65;9.27;;;16.90;99.90;;;;;;5014045;28;20053;-74
2022/08/21 06:41:58;;;;;;;15.70;9.75;;;17.00;99.90;;;;;;5013079;28;20045;-73
2022/08/21 06:44:23;;;;;;;14.05;9.10;;;17.00;99.90;;;;;;5011948;28;20045;-73
2022/08/21 06:46:49;;;;;;;13.50;8.88;;;17.10;99.90;;;;;;4995754;28;20133;-74
2022/08/21 06:49:15;;;;;;;13.55;8.90;;;17.20;99.90;;;;;;5012784;28;20128;-73
2022/08/21 06:51:41;;;;;;;15.30;8.80;;;17.30;99.90;;;;;;5005056;28;20042;-73
2022/08/21 06:54:08;;;;;;;13.55;7.78;;;17.40;99.90;;;;;;4995845;28;20037;-74
2022/08/21 06:56:37;;;;;;;18.60;9.15;;;17.50;99.90;;;;;;5021619;28;20085;-73
2022/08/21 06:59:05;;;;;;;14.85;9.10;;;17.60;99.90;;;;;;5029297;28;20053;-74
2022/08/21 07:01:31;;;;;;;14.98;8.57;;;17.70;99.90;;;;;;5019973;28;20065;-73
2022/08/21 07:03:57;;;;;;;18.60;10.13;;;17.70;99.90;;;;;;5015292;28;20157;-73
2022/08/21 07:06:23;;;;;;;15.50;8.55;;;17.80;99.90;;;;;;5012326;28;20120;-73
2022/08/21 07:08:49;;;;;;;13.57;8.63;;;18.00;99.90;;;;;;5030841;28;20037;-74
2022/08/21 07:11:19;;;;;;;18.77;8.73;;;18.10;99.90;;;;;;5019559;28;20045;-73
2022/08/21 07:13:45;;;;;;;13.98;7.72;;;18.20;99.90;;;;;;5031230;28;20514;-72
2022/08/21 07:16:11;;;;;;;13.95;7.30;;;18.20;99.90;;;;;;5029706;28;20128;-73
2022/08/21 07:18:37;;;;;;;13.10;7.10;;;18.40;99.90;;;;;;5029791;28;20497;-72
2022/08/21 07:21:07;;;;;;;10.38;5.82;;;18.60;99.90;;;;;;5031683;28;20106;-73
2022/08/21 07:23:39;;;;;;;12.70;6.85;;;18.60;99.90;;;;;;5021194;28;20049;-74
2022/08/21 07:26:06;;;;;;;11.35;5.85;;;18.70;99.90;;;;;;5008759;28;20057;-73
2022/08/21 07:28:32;;;;;;;11.30;5.30;;;18.90;99.90;;;;;;5022888;28;20056;-73
2022/08/21 07:31:03;;;;;;;11.32;5.47;;;19.00;99.90;;;;;;4995314;28;20050;-74
2022/08/21 07:33:31;;;;;;;11.35;5.30;;;19.10;99.90;;;;;;5026102;28;20049;-74
2022/08/21 07:35:57;;;;;;;10.95;4.68;;;19.30;99.90;;;;;;5040656;28;20438;-73
2022/08/21 07:38:23;;;;;;;8.45;4.10;;;19.30;99.90;;;;;;5011579;28;20493;-73
2022/08/21 07:40:50;;;;;;;10.23;4.25;;;19.40;99.90;;;;;;5000536;28;20367;-73
2022/08/21 07:43:17;;;;;;;10.93;4.60;;;19.50;99.90;;;;;;4999982;28;20076;-73
2022/08/21 07:45:44;;;;;;;9.65;3.63;;;19.50;99.90;;;;;;5008581;28;20500;-73
2022/08/21 07:48:11;;;;;;;9.18;3.95;;;19.70;99.90;;;;;;4994637;28;20042;-73
2022/08/21 07:50:37;;;;;;;10.75;4.43;;;19.80;99.90;;;;;;5011448;28;20045;-72
2022/08/21 07:53:04;;;;;;;11.65;4.30;;;19.80;99.90;;;;;;5006485;28;20049;-73
2022/08/21 07:55:30;;;;;;;8.05;4.47;;;20.00;99.90;;;;;;5023624;28;20045;-73
2022/08/21 07:57:55;;;;;;;13.70;4.55;;;20.00;99.90;;;;;;4994488;28;20052;-73
2022/08/21 08:00:24;;;;;;;12.40;4.80;;;20.10;99.90;;;;;;5010020;28;20091;-74
2022/08/21 08:02:52;;;;;;;11.13;4.53;;;20.20;99.90;;;;;;5047488;28;20106;-73
2022/08/21 08:05:23;;;;;;;13.10;4.22;;;20.30;99.90;;;;;;5027408;28;20041;-73
2022/08/21 08:07:49;;;;;;;9.13;3.70;;;20.40;99.90;;;;;;5019924;28;20045;-73
2022/08/21 08:10:16;;;;;;;11.05;3.55;;;20.40;99.90;;;;;;5027049;28;20370;-73
2022/08/21 08:12:43;;;;;;;14.02;4.32;;;20.50;99.90;;;;;;5028090;28;20046;-74
2022/08/21 08:15:12;;;;;;;10.98;3.70;;;20.50;99.90;;;;;;5009335;28;20049;-73
2022/08/21 08:17:38;;;;;;;9.60;3.80;;;20.60;99.90;;;;;;5003467;28;20386;-74
2022/08/21 08:20:06;;;;;;;11.27;3.92;;;20.70;99.90;;;;;;4978149;28;20042;-74
2022/08/21 08:22:34;;;;;;;9.93;3.80;;;20.70;99.90;;;;;;5014793;28;20034;-73
2022/08/21 08:25:01;;;;;;;9.93;3.78;;;20.80;99.90;;;;;;5018193;28;20469;-73
2022/08/21 08:27:27;;;;;;;7.90;3.70;;;20.90;99.90;;;;;;5021259;28;20041;-73
2022/08/21 08:29:53;;;;;;;7.63;3.78;;;20.90;99.90;;;;;;5027033;28;20037;-73
2022/08/21 08:32:20;;;;;;;10.52;3.47;;;21.00;99.90;;;;;;5018921;28;20385;-73
2022/08/21 08:34:46;;;;;;;11.52;3.60;;;21.10;99.90;;;;;;5022949;28;20042;-73
2022/08/21 08:37:13;;;;;;;6.93;3.45;;;21.20;99.90;;;;;;5018288;28;20080;-73
2022/08/21 08:39:39;;;;;;;10.90;3.58;;;21.10;99.90;;;;;;5000935;28;20277;-73
2022/08/21 08:42:14;;;;;;;13.20;3.83;;;21.20;99.90;;;;;;4994865;28;20042;-73
2022/08/21 08:44:42;;;;;;;10.45;4.03;;;21.30;99.90;;;;;;5021984;28;20493;-73
2022/08/21 08:47:11;;;;;;;10.38;3.70;;;21.30;99.90;;;;;;5024255;28;20045;-73
2022/08/21 08:49:51;;;;;;;13.85;3.80;;;21.50;99.90;;;;;;5011027;28;20120;-72
2022/08/21 08:52:23;;;;;;;9.75;2.72;;;21.60;99.90;;;;;;5030563;28;20382;-73
2022/08/21 08:54:58;;;;;;;11.05;3.80;;;21.80;99.90;;;;;;5029379;28;20063;-73
2022/08/21 08:57:25;;;;;;;9.82;3.15;;;21.80;99.90;;;;;;5016089;28;20088;-73
2022/08/21 08:59:55;;;;;;;12.10;3.65;;;21.60;99.90;;;;;;5013660;28;20060;-73
2022/08/21 09:02:27;;;;;;;10.15;3.35;;;21.60;99.90;;;;;;5014444;28;20054;-73
2022/08/21 09:04:54;;;;;;;7.85;2.58;;;21.70;99.90;;;;;;5003837;28;20033;-73
2022/08/21 09:07:50;;;;;;;8.18;2.70;;;21.70;99.90;;;;;;5032000;28;20045;-73
2022/08/21 09:10:22;;;;;;;11.10;2.80;;;21.70;99.90;;;;;;5050281;28;20083;-74
2022/08/21 09:13:10;;;;;;;9.90;2.80;;;21.80;99.90;;;;;;5022957;28;20092;-72
2022/08/21 09:16:03;;;;;;;6.07;2.60;;;21.70;99.90;;;;;;5007758;28;20060;-73
2022/08/21 09:19:10;;;;;;;8.45;2.63;;;21.90;99.90;;;;;;4999284;28;20052;-72
2022/08/21 09:22:13;;;;;;;7.82;2.65;;;21.90;99.90;;;;;;5015558;28;20390;-73
2022/08/21 09:25:01;;;;;;;8.65;2.45;;;22.20;99.90;;;;;;4999226;28;20053;-73
2022/08/21 09:27:26;;;;;;;7.35;2.42;;;22.20;99.90;;;;;;5019769;28;20117;-73
2022/08/21 09:29:54;;;;;;;9.80;2.80;;;22.30;99.90;;;;;;4981405;28;20136;-73
2022/08/21 09:32:22;;;;;;;8.40;2.35;;;22.40;99.90;;;;;;5013741;28;20077;-73
2022/08/21 09:35:13;;;;;;;6.97;2.40;;;22.50;99.90;;;;;;4997544;28;20435;-73
2022/08/21 09:37:53;;;;;;;10.35;2.90;;;22.50;99.90;;;;;;5009716;28;20045;-73
2022/08/21 09:40:39;;;;;;;7.88;2.90;;;22.70;99.90;;;;;;5013494;28;20045;-73
2022/08/21 09:43:11;;;;;;;7.72;2.60;;;22.80;99.90;;;;;;5019859;28;20059;-73
2022/08/21 09:45:38;;;;;;;7.68;2.33;;;22.70;99.90;;;;;;5031465;28;20038;-73
2022/08/21 09:48:22;;;;;;;6.75;2.30;;;22.90;99.90;;;;;;5038060;28;20125;-74
2022/08/21 09:50:50;;;;;;;7.10;2.40;;;22.90;99.90;;;;;;4997232;28;20124;-73
2022/08/21 09:53:27;;;;;;;7.18;2.40;;;22.90;99.90;;;;;;4996983;28;20104;-73
2022/08/21 09:58:41;;;;;;;7.03;2.33;;;22.70;99.90;;;;;;5031521;28;20053;-73
2022/08/21 10:01:12;;;;;;;6.25;2.00;;;23.00;99.90;;;;;;5015967;28;20052;-73
2022/08/21 10:03:38;;;;;;;6.57;2.00;;;23.20;99.90;;;;;;5030975;28;20073;-73
2022/08/21 10:06:09;;;;;;;7.93;2.13;;;23.40;99.90;;;;;;4973357;28;20073;-73
2022/08/21 10:08:36;;;;;;;;;;;23.80;99.90;;;;;;4999911;28;20037;-73
2022/08/21 10:11:12;;;;;;;6.07;2.35;;;23.90;99.90;;;;;;5033281;28;19920;-73
2022/08/21 10:13:38;;;;;;;7.13;2.50;;;23.90;99.90;;;;;;5031885;28;20041;-72
2022/08/21 10:16:22;;;;;;;7.70;2.40;;;23.80;99.90;;;;;;5009052;28;20037;-72
2022/08/21 10:19:22;;;;;;;5.97;1.77;;;23.80;99.90;;;;;;5009095;28;20647;-73
2022/08/21 10:21:59;;;;;;;5.07;1.73;;;23.80;99.90;;;;;;5012907;28;20053;-73
2022/08/21 10:24:37;;;;;;;8.32;2.42;;;24.00;99.90;;;;;;4999377;28;22174;-73
2022/08/21 10:27:31;;;;;;;10.63;2.53;;;24.10;99.90;;;;;;5021241;28;20048;-73
2022/08/21 10:30:06;;;;;;;7.07;1.98;;;24.20;99.90;;;;;;4996488;28;20042;-73
2022/08/21 10:32:50;;;;;;;8.05;2.25;;;24.30;99.90;;;;;;5013042;28;20049;-74
2022/08/21 10:35:19;;;;;;;6.78;2.10;;;24.10;99.90;;;;;;5018685;28;20033;-73
2022/08/21 10:37:48;;;;;;;6.60;1.90;;;24.40;99.90;;;;;;5042079;28;20041;-73
2022/08/21 10:40:35;;;;;;;5.28;1.67;;;24.60;99.90;;;;;;5003165;28;20379;-73
2022/08/21 10:43:24;;;;;;;4.82;2.00;;;24.70;99.60;;;;;;4996166;28;20076;-73
2022/08/21 10:46:19;;;;;;;7.93;2.10;;;24.90;99.20;;;;;;5021571;28;20444;-73
2022/08/21 10:48:51;;;;;;;6.15;1.90;;;25.00;99.90;;;;;;5048756;28;20510;-73
2022/08/21 10:51:28;;;;;;;5.43;2.20;;;25.00;99.90;;;;;;5032296;28;20049;-74
2022/08/21 10:54:05;;;;;;;3.80;1.60;;;25.20;98.60;;;;;;5017136;28;20077;-73
2022/08/21 10:56:36;;;;;;;6.13;1.90;;;25.00;97.30;;;;;;5019811;28;20045;-73
2022/08/21 10:59:27;;;;;;;5.93;1.80;;;25.20;98.80;;;;;;4997402;28;20497;-73
2022/08/21 11:02:20;;;;;;;6.22;1.63;;;25.10;97.80;;;;;;5011036;28;20053;-73
2022/08/21 11:04:52;;;;;;;4.78;1.90;;;25.20;96.50;;;;;;5011413;28;20133;-73
2022/08/21 11:07:27;;;;;;;4.72;1.42;;;25.00;97.50;;;;;;5022259;28;20033;-73
2022/08/21 11:09:56;;;;;;;4.25;1.50;;;24.70;96.60;;;;;;5014676;28;20049;-73
2022/08/21 11:12:38;;;;;;;5.97;1.75;;;24.90;96.90;;;;;;5015319;28;20042;-73
2022/08/21 11:15:26;;;;;;;8.50;1.92;;;25.00;96.30;;;;;;5030356;28;20135;-73
2022/08/21 11:18:02;;;;;;;6.28;1.52;;;25.00;94.80;;;;;;5000635;28;20041;-73
2022/08/21 11:20:43;;;;;;;5.22;1.70;;;24.80;95.20;;;;;;5018992;28;20508;-73
2022/08/21 11:23:54;;;;;;;6.38;1.83;;;24.70;96.50;;;;;;5031397;28;20041;-73
2022/08/21 11:26:38;;;;;;;7.00;1.80;;;24.60;95.40;;;;;;5030136;28;20037;-73
2022/08/21 11:29:13;;;;;;;4.03;1.50;;;24.50;93.60;;;;;;5017056;28;20509;-73
2022/08/21 11:31:45;;;;;;;4.95;1.60;;;24.50;97.00;;;;;;5011621;28;20097;-73
2022/08/21 11:34:17;;;;;;;6.10;1.80;;;24.30;95.60;;;;;;5011735;28;20073;-73
2022/08/21 11:36:51;;;;;;;5.53;1.58;;;24.20;95.10;;;;;;5017122;28;20057;-73
2022/08/21 11:39:30;;;;;;;6.35;1.83;;;24.20;96.10;;;;;;5023791;28;21636;-73
2022/08/21 11:42:28;;;;;;;5.18;1.80;;;24.20;96.40;;;;;;5020243;28;20049;-73
2022/08/21 11:45:20;;;;;;;5.03;1.70;;;24.10;96.40;;;;;;5018996;28;20037;-73
2022/08/21 11:48:04;;;;;;;6.05;1.83;;;24.00;96.10;;;;;;5030053;28;20517;-73
2022/08/21 11:50:32;;;;;;;4.88;1.80;;;23.80;97.50;;;;;;5000971;28;20121;-73
2022/08/21 11:53:33;;;;;;;6.03;1.95;;;23.60;97.70;;;;;;5011531;28;20089;-73
2022/08/21 11:56:01;;;;;;;4.38;1.85;;;23.60;98.20;;;;;;5011048;28;20049;-72
2022/08/21 11:58:39;;;;;;;4.32;1.95;;;23.50;98.10;;;;;;5010771;28;20042;-73
2022/08/21 12:01:09;;;;;;;4.72;1.80;;;23.50;98.90;;;;;;4996322;28;20042;-73
2022/08/21 12:03:42;;;;;;;5.78;1.70;;;23.40;99.20;;;;;;5038370;28;20046;-73
2022/08/21 12:06:13;;;;;;;4.40;1.70;;;23.40;99.10;;;;;;5010023;28;20041;-73
2022/08/21 12:08:45;;;;;;;4.75;1.60;;;23.20;98.90;;;;;;5013698;28;20188;-73
2022/08/21 12:11:17;;;;;;;4.70;1.90;;;23.20;98.70;;;;;;5026490;28;20106;-73
2022/08/21 12:13:59;;;;;;;7.82;1.90;;;23.20;99.20;;;;;;5006936;28;20168;-74
2022/08/21 12:16:30;;;;;;;6.53;1.75;;;23.00;98.90;;;;;;5005733;28;20053;-74
2022/08/21 12:19:19;;;;;;;5.38;2.20;;;22.90;99.80;;;;;;4995872;28;20390;-73
2022/08/21 12:22:05;;;;;;;6.45;1.77;;;22.80;99.90;;;;;;5026453;28;20037;-73
2022/08/21 12:24:44;;;;;;;4.72;1.67;;;22.70;99.90;;;;;;5028900;28;20045;-73
2022/08/21 12:27:26;;;;;;;4.78;2.13;;;22.60;99.90;;;;;;5014936;28;20117;-73
2022/08/21 12:30:01;;;;;;;5.93;2.00;;;22.50;99.90;;;;;;5029387;28;20037;-73
2022/08/21 12:32:29;;;;;;;6.43;2.10;;;22.50;99.90;;;;;;5015984;28;20057;-73
2022/08/21 12:35:07;;;;;;;4.03;1.80;;;22.40;99.90;;;;;;5048666;28;20124;-73
2022/08/21 12:37:41;;;;;;;7.60;2.00;;;22.30;99.90;;;;;;5019924;28;20049;-73
2022/08/21 12:40:16;;;;;;;7.30;2.10;;;22.30;99.90;;;;;;5014871;28;20041;-73
2022/08/21 12:42:49;;;;;;;4.72;1.80;;;22.40;99.90;;;;;;5031940;28;20049;-73
2022/08/21 12:45:37;;;;;;;7.22;2.15;;;23.00;99.90;;;;;;5023688;28;20119;-73
2022/08/21 12:48:46;;;;;;;3.40;1.80;;;23.60;99.90;;;;;;5031269;28;20041;-73
2022/08/21 12:51:18;;;;;;;4.68;2.03;;;24.00;99.90;;;;;;5015615;28;20124;-73
2022/08/21 12:53:54;;;;;;;6.20;2.00;;;24.20;99.90;;;;;;5042296;28;20055;-74
2022/08/21 12:56:23;;;;;;;8.32;1.70;;;24.60;99.90;;;;;;5018400;28;20381;-74